createdAt,value
2022-10-18T00:00:07.863Z,70.3571
2022-10-18T00:01:07.909Z,70.4286
2022-10-18T00:02:08.017Z,70.4286
2022-10-18T00:03:07.956Z,70.5
2022-10-18T00:04:07.982Z,70.5
2022-10-18T00:05:08.013Z,70.5
2022-10-18T00:06:08.042Z,70.5714
2022-10-18T00:07:08.081Z,70.5
2022-10-18T00:08:08.114Z,70.5
2022-10-18T00:09:08.132Z,70.5
2022-10-18T00:10:08.170Z,70.5
2022-10-18T00:11:08.195Z,70.5
2022-10-18T00:12:08.230Z,70.5
2022-10-18T00:13:08.268Z,70.5714
2022-10-18T00:14:08.309Z,70.5714
2022-10-18T00:15:08.317Z,70.5714
2022-10-18T00:16:08.347Z,70.5714
2022-10-18T00:17:08.403Z,70.6429
2022-10-18T00:18:08.457Z,70.7143
2022-10-18T00:19:08.445Z,70.7143
2022-10-18T00:20:08.461Z,70.7857
2022-10-18T00:21:08.499Z,70.7857
2022-10-18T00:22:08.528Z,70.7857
2022-10-18T00:23:08.559Z,70.8571
2022-10-18T00:24:08.598Z,70.8571
2022-10-18T00:25:08.632Z,70.8571
2022-10-18T00:26:08.667Z,70.8571
2022-10-18T00:27:08.699Z,70.9286
2022-10-18T00:28:08.734Z,71
2022-10-18T00:29:08.775Z,71.0714
2022-10-18T00:30:08.801Z,71.0714
2022-10-18T00:31:08.832Z,71.0714
2022-10-18T00:32:08.869Z,71
2022-10-18T00:33:08.894Z,70.9286
2022-10-18T00:34:08.933Z,70.9286
2022-10-18T00:35:08.963Z,71
2022-10-18T00:36:09.009Z,71
2022-10-18T00:37:09.040Z,70.9286
2022-10-18T00:38:09.068Z,70.8571
2022-10-18T00:39:09.108Z,70.7857
2022-10-18T00:40:09.142Z,70.7857
2022-10-18T00:41:09.210Z,70.7143
2022-10-18T00:42:09.218Z,70.6429
2022-10-18T00:43:09.250Z,70.5714
2022-10-18T00:44:09.287Z,70.5
2022-10-18T00:45:09.323Z,70.5
2022-10-18T00:46:09.355Z,70.5714
2022-10-18T00:47:09.381Z,70.5714
2022-10-18T00:48:09.417Z,70.3571
2022-10-18T00:49:09.446Z,70.4286
2022-10-18T00:50:09.474Z,70.5714
2022-10-18T00:51:09.507Z,70.6429
2022-10-18T00:52:09.550Z,70.7857
2022-10-18T00:53:09.575Z,70.8571
2022-10-18T00:54:09.599Z,70.7857
2022-10-18T00:55:09.634Z,70.7143
2022-10-18T00:56:09.659Z,70.7857
2022-10-18T00:57:09.685Z,70.9286
2022-10-18T00:58:09.720Z,70.9286
2022-10-18T00:59:09.745Z,70.9286
2022-10-18T01:00:09.796Z,70.9286
2022-10-18T01:01:09.856Z,70.8571
2022-10-18T01:02:09.885Z,70.7143
2022-10-18T01:03:09.881Z,70.6429
2022-10-18T01:04:09.922Z,70.5714
2022-10-18T01:05:09.958Z,70.5
2022-10-18T01:06:09.980Z,70.5714
2022-10-18T01:07:10.027Z,70.5714
2022-10-18T01:08:10.047Z,70.6429
2022-10-18T01:09:10.076Z,70.7143
2022-10-18T01:10:10.116Z,70.7857
2022-10-18T01:11:10.154Z,70.7857
2022-10-18T01:12:10.190Z,70.9286
2022-10-18T01:13:10.217Z,70.8571
2022-10-18T01:14:10.246Z,70.9286
2022-10-18T01:15:10.274Z,70.8571
2022-10-18T01:16:10.313Z,70.7857
2022-10-18T01:17:10.350Z,70.5714
2022-10-18T01:18:10.385Z,70.3571
2022-10-18T01:19:10.419Z,70.2857
2022-10-18T01:20:10.454Z,70.2857
2022-10-18T01:21:10.492Z,70.2857
2022-10-18T01:22:10.516Z,70.3571
2022-10-18T01:23:10.541Z,70.5
2022-10-18T01:24:10.571Z,70.5
2022-10-18T01:25:10.598Z,70.5714
2022-10-18T01:26:10.631Z,70.5714
2022-10-18T01:27:10.663Z,70.5714
2022-10-18T01:28:10.699Z,70.7143
2022-10-18T01:29:10.739Z,70.9286
2022-10-18T01:30:10.766Z,71
2022-10-18T01:31:10.802Z,71.2143
2022-10-18T01:32:10.833Z,71.2857
2022-10-18T01:33:10.862Z,71.3571
2022-10-18T01:34:10.898Z,71.2857
2022-10-18T01:35:10.925Z,71.2857
2022-10-18T01:36:10.960Z,71.3571
2022-10-18T01:37:10.989Z,71.3571
2022-10-18T01:38:11.020Z,71.2857
2022-10-18T01:39:11.039Z,71.3571
2022-10-18T01:40:11.075Z,71.3571
2022-10-18T01:41:14.801Z,71.4286
2022-10-18T01:42:11.143Z,71.7857
2022-10-18T01:43:11.177Z,72.1429
2022-10-18T01:44:11.205Z,72.3571
2022-10-18T01:45:11.242Z,72.5714
2022-10-18T01:46:11.280Z,72.5714
2022-10-18T01:47:11.312Z,72.6429
2022-10-18T01:48:11.344Z,72.5714
2022-10-18T01:49:11.377Z,72.4286
2022-10-18T01:50:11.407Z,72.1429
2022-10-18T01:51:11.441Z,72.0714
2022-10-18T01:52:11.475Z,71.9286
2022-10-18T01:53:11.502Z,71.8571
2022-10-18T01:54:11.540Z,71.7857
2022-10-18T01:55:11.581Z,71.7143
2022-10-18T01:56:11.613Z,71.8571
2022-10-18T01:57:11.646Z,72
2022-10-18T01:58:11.672Z,72.3571
2022-10-18T01:59:11.701Z,72.7143
2022-10-18T02:00:11.724Z,73.0714
2022-10-18T02:02:11.787Z,73.3571
2022-10-18T02:03:11.819Z,73.5
2022-10-18T02:04:11.843Z,73.7143
2022-10-18T02:05:11.873Z,73.7143
2022-10-18T02:06:11.905Z,73.6429
2022-10-18T02:07:11.936Z,73.5714
2022-10-18T02:08:19.244Z,73.6429
2022-10-18T02:09:11.996Z,73.3571
2022-10-18T02:10:12.119Z,73.4286
2022-10-18T02:11:12.063Z,73.4286
2022-10-18T02:12:12.089Z,73.4286
2022-10-18T02:13:12.122Z,73.5714
2022-10-18T02:14:12.159Z,73.7143
2022-10-18T02:15:12.189Z,73.7857
2022-10-18T02:16:12.217Z,73.8571
2022-10-18T02:17:12.255Z,73.7857
2022-10-18T02:18:12.289Z,73.7143
2022-10-18T02:19:12.375Z,73.7143
2022-10-18T02:20:12.361Z,73.7143
2022-10-18T02:21:12.399Z,73.7143
2022-10-18T02:22:12.432Z,73.5714
2022-10-18T02:23:12.466Z,73.5714
2022-10-18T02:24:12.491Z,73.6429
2022-10-18T02:25:12.519Z,73.6429
2022-10-18T02:26:12.555Z,73.5714
2022-10-18T02:27:12.586Z,73.5
2022-10-18T02:28:12.704Z,73.4286
2022-10-18T02:29:12.656Z,73.3571
2022-10-18T02:30:12.688Z,73.3571
2022-10-18T02:31:12.718Z,73.3571
2022-10-18T02:32:12.760Z,73.2857
2022-10-18T02:33:12.801Z,73.2143
2022-10-18T02:34:12.833Z,73.2143
2022-10-18T02:35:12.860Z,73.2143
2022-10-18T02:36:12.896Z,73.2143
2022-10-18T02:37:13.063Z,73.2143
2022-10-18T02:38:12.964Z,73.2143
2022-10-18T02:39:13.003Z,73.2143
2022-10-18T02:40:13.038Z,73.1429
2022-10-18T02:41:13.074Z,73.0714
2022-10-18T02:42:13.104Z,73
2022-10-18T02:43:13.142Z,72.9286
2022-10-18T02:44:13.166Z,72.8571
2022-10-18T02:45:13.199Z,72.8571
2022-10-18T02:46:13.337Z,72.8571
2022-10-18T02:47:13.332Z,72.8571
2022-10-18T02:48:13.311Z,72.8571
2022-10-18T02:49:13.346Z,72.8571
2022-10-18T02:50:13.381Z,72.7857
2022-10-18T02:51:13.413Z,72.7857
2022-10-18T02:52:13.440Z,72.7143
2022-10-18T02:53:13.479Z,72.7143
2022-10-18T02:54:13.570Z,72.7143
2022-10-18T02:55:13.537Z,72.6429
2022-10-18T02:56:13.572Z,72.6429
2022-10-18T02:57:13.606Z,72.5714
2022-10-18T02:58:13.632Z,72.5714
2022-10-18T02:59:13.667Z,72.5
2022-10-18T03:00:13.704Z,72.4286
2022-10-18T03:01:13.806Z,72.3571
2022-10-18T03:02:13.764Z,72.3571
2022-10-18T03:03:13.799Z,72.2857
2022-10-18T03:04:13.832Z,72.2857
2022-10-18T03:05:13.871Z,72.2143
2022-10-18T03:06:13.912Z,72.2143
2022-10-18T03:07:13.948Z,72.1429
2022-10-18T03:08:13.975Z,72.1429
2022-10-18T03:09:14.005Z,72.0714
2022-10-18T03:10:14.038Z,72.0714
2022-10-18T03:11:14.074Z,72
2022-10-18T03:12:14.113Z,71.9286
2022-10-18T03:13:14.146Z,71.9286
2022-10-18T03:14:14.176Z,71.9286
2022-10-18T03:15:14.207Z,71.8571
2022-10-18T03:16:14.243Z,71.7143
2022-10-18T03:17:14.270Z,71.6429
2022-10-18T03:18:14.307Z,71.5714
2022-10-18T03:19:14.343Z,71.5
2022-10-18T03:20:14.376Z,71.5
2022-10-18T03:21:14.416Z,71.4286
2022-10-18T03:22:14.456Z,71.4286
2022-10-18T03:23:14.486Z,71.3571
2022-10-18T03:24:14.519Z,71.2143
2022-10-18T03:25:14.561Z,71.1429
2022-10-18T03:26:14.595Z,71.0714
2022-10-18T03:27:14.624Z,71
2022-10-18T03:28:14.654Z,71.0714
2022-10-18T03:29:14.697Z,71.0714
2022-10-18T03:30:14.724Z,71.1429
2022-10-18T03:31:14.759Z,71.1429
2022-10-18T03:32:14.792Z,71.1429
2022-10-18T03:33:14.825Z,71.2143
2022-10-18T03:34:14.861Z,71.2143
2022-10-18T03:35:14.897Z,71.2857
2022-10-18T03:36:14.935Z,71.2857
2022-10-18T03:37:14.959Z,71.3571
2022-10-18T03:38:14.991Z,71.4286
2022-10-18T03:39:15.028Z,71.5
2022-10-18T03:40:15.060Z,71.5714
2022-10-18T03:41:15.088Z,71.5714
2022-10-18T03:42:15.128Z,71.6429
2022-10-18T03:43:15.161Z,71.7143
2022-10-18T03:44:15.197Z,71.7857
2022-10-18T03:45:15.237Z,71.7857
2022-10-18T03:46:15.265Z,71.7857
2022-10-18T03:47:15.305Z,71.8571
2022-10-18T03:48:15.343Z,71.7857
2022-10-18T03:49:15.373Z,71.8571
2022-10-18T03:50:15.400Z,71.8571
2022-10-18T03:51:15.427Z,71.8571
2022-10-18T03:52:15.451Z,71.8571
2022-10-18T03:53:15.487Z,71.7857
2022-10-18T03:54:15.526Z,71.8571
2022-10-18T03:55:15.561Z,71.7857
2022-10-18T03:56:15.588Z,71.7857
2022-10-18T03:57:15.616Z,71.7857
2022-10-18T03:58:15.645Z,71.7857
2022-10-18T03:59:15.682Z,71.7143
2022-10-18T04:00:15.718Z,71.7143
2022-10-18T04:01:15.864Z,71.7857
2022-10-18T04:02:15.792Z,71.7857
2022-10-18T04:03:15.830Z,71.8571
2022-10-18T04:04:15.862Z,71.8571
2022-10-18T04:05:15.887Z,71.9286
2022-10-18T04:06:15.917Z,71.9286
2022-10-18T04:07:15.947Z,72
2022-10-18T04:08:15.977Z,72.0714
2022-10-18T04:09:16.009Z,72.0714
2022-10-18T04:10:16.042Z,72.1429
2022-10-18T04:11:16.069Z,72.0714
2022-10-18T04:12:16.099Z,72.1429
2022-10-18T04:13:16.136Z,72.1429
2022-10-18T04:14:16.165Z,72.1429
2022-10-18T04:15:16.195Z,72.1429
2022-10-18T04:16:16.224Z,72.1429
2022-10-18T04:17:16.258Z,72.1429
2022-10-18T04:18:16.296Z,72.1429
2022-10-18T04:19:16.320Z,72.1429
2022-10-18T04:20:16.353Z,72.0714
2022-10-18T04:21:16.379Z,72.0714
2022-10-18T04:22:16.420Z,72.0714
2022-10-18T04:23:16.447Z,72
2022-10-18T04:24:16.475Z,72.0714
2022-10-18T04:25:16.514Z,72.1429
2022-10-18T04:26:16.549Z,72.1429
2022-10-18T04:27:16.565Z,72.1429
2022-10-18T04:28:16.602Z,72.2143
2022-10-18T04:29:16.639Z,72.2143
2022-10-18T04:30:16.667Z,72.2857
2022-10-18T04:31:16.722Z,72.2857
2022-10-18T04:32:16.734Z,72.3571
2022-10-18T04:33:16.761Z,72.3571
2022-10-18T04:34:16.787Z,72.3571
2022-10-18T04:35:16.825Z,72.4286
2022-10-18T04:36:16.852Z,72.4286
2022-10-18T04:37:16.878Z,72.4286
2022-10-18T04:38:16.916Z,72.5
2022-10-18T04:39:16.955Z,72.4286
2022-10-18T04:40:16.987Z,72.4286
2022-10-18T04:41:17.026Z,72.4286
2022-10-18T04:42:17.057Z,72.5714
2022-10-18T04:43:17.094Z,72.5
2022-10-18T04:44:17.136Z,72.5714
2022-10-18T04:45:17.171Z,72.6429
2022-10-18T04:46:17.208Z,72.7143
2022-10-18T04:47:17.245Z,72.7857
2022-10-18T04:48:17.273Z,72.7857
2022-10-18T04:49:17.301Z,72.7857
2022-10-18T04:50:17.333Z,72.7857
2022-10-18T04:51:17.362Z,72.7857
2022-10-18T04:52:17.417Z,72.7857
2022-10-18T04:53:17.430Z,72.7857
2022-10-18T04:54:17.460Z,72.7857
2022-10-18T04:55:17.492Z,72.7857
2022-10-18T04:56:17.523Z,72.8571
2022-10-18T04:57:17.547Z,72.7857
2022-10-18T04:58:17.573Z,72.7857
2022-10-18T04:59:17.607Z,72.7143
2022-10-18T05:00:17.640Z,72.5714
2022-10-18T05:01:17.698Z,72.5
2022-10-18T05:02:17.706Z,72.4286
2022-10-18T05:03:17.742Z,72.5
2022-10-18T05:04:17.784Z,72.4286
2022-10-18T05:05:17.815Z,72.3571
2022-10-18T05:06:17.850Z,72.4286
2022-10-18T05:07:17.885Z,72.5
2022-10-18T05:08:17.915Z,72.5714
2022-10-18T05:09:17.943Z,72.5714
2022-10-18T05:10:17.980Z,72.7143
2022-10-18T05:11:18.015Z,72.7857
2022-10-18T05:12:18.048Z,72.9286
2022-10-18T05:13:18.087Z,72.9286
2022-10-18T05:14:18.124Z,73
2022-10-18T05:15:18.153Z,72.9286
2022-10-18T05:16:18.190Z,72.9286
2022-10-18T05:17:18.220Z,73
2022-10-18T05:18:18.251Z,73
2022-10-18T05:19:18.281Z,73
2022-10-18T05:20:18.334Z,73.0714
2022-10-18T05:21:18.358Z,73.2143
2022-10-18T05:22:18.392Z,73.2857
2022-10-18T05:23:18.420Z,73.2857
2022-10-18T05:24:18.453Z,73.2857
2022-10-18T05:25:18.488Z,73.3571
2022-10-18T05:26:18.516Z,73.3571
2022-10-18T05:27:18.548Z,73.3571
2022-10-18T05:28:34.674Z,73.3571
2022-10-18T05:29:18.770Z,73.3571
2022-10-18T05:30:18.654Z,73.3571
2022-10-18T05:31:18.682Z,73.3571
2022-10-18T05:32:18.713Z,73.3571
2022-10-18T05:33:18.744Z,73.3571
2022-10-18T05:34:18.781Z,73.3571
2022-10-18T05:35:18.822Z,73.3571
2022-10-18T05:36:18.850Z,73.3571
2022-10-18T05:37:18.884Z,73.3571
2022-10-18T05:38:18.912Z,73.3571
2022-10-18T05:39:18.947Z,73.2143
2022-10-18T05:40:18.978Z,73.1429
2022-10-18T05:41:19.008Z,73.2143
2022-10-18T05:42:19.040Z,73.1429
2022-10-18T05:43:19.083Z,73.2143
2022-10-18T05:44:19.112Z,73.1429
2022-10-18T05:45:19.165Z,73.1429
2022-10-18T05:46:19.178Z,73.1429
2022-10-18T05:47:19.217Z,73.0714
2022-10-18T05:48:19.256Z,73
2022-10-18T05:49:19.282Z,72.9286
2022-10-18T05:50:19.316Z,72.8571
2022-10-18T05:51:19.351Z,72.8571
2022-10-18T05:52:19.382Z,72.8571
2022-10-18T05:53:35.571Z,72.9286
2022-10-18T05:54:19.443Z,73
2022-10-18T05:55:19.482Z,73.0714
2022-10-18T05:56:19.512Z,73.1429
2022-10-18T05:57:19.539Z,73.1429
2022-10-18T05:58:19.581Z,73.1429
2022-10-18T05:59:19.606Z,73.1429
2022-10-18T06:00:19.633Z,73.2143
2022-10-18T06:01:19.672Z,73.2143
2022-10-18T06:02:19.829Z,73.2143
2022-10-18T06:03:19.734Z,73.1429
2022-10-18T06:04:19.770Z,73.0714
2022-10-18T06:05:19.813Z,73.0714
2022-10-18T06:06:19.835Z,73.0714
2022-10-18T06:07:19.865Z,73.0714
2022-10-18T06:08:19.900Z,73.0714
2022-10-18T06:09:19.930Z,73.0714
2022-10-18T06:10:19.958Z,73.0714
2022-10-18T06:11:19.989Z,73.1429
2022-10-18T06:12:20.024Z,73.1429
2022-10-18T06:13:20.051Z,73.1429
2022-10-18T06:14:20.084Z,73.1429
2022-10-18T06:15:20.123Z,73.1429
2022-10-18T06:16:20.207Z,73.2143
2022-10-18T06:17:20.190Z,73.2857
2022-10-18T06:18:20.229Z,73.2857
2022-10-18T06:19:20.260Z,73.2857
2022-10-18T06:20:20.296Z,73.3571
2022-10-18T06:21:20.336Z,73.3571
2022-10-18T06:22:20.376Z,73.3571
2022-10-18T06:23:20.411Z,73.3571
2022-10-18T06:24:20.444Z,73.3571
2022-10-18T06:25:20.471Z,73.3571
2022-10-18T06:26:20.513Z,73.5
2022-10-18T06:27:20.541Z,73.4286
2022-10-18T06:28:20.566Z,73.4286
2022-10-18T06:29:20.597Z,73.4286
2022-10-18T06:30:20.636Z,73.3571
2022-10-18T06:31:20.664Z,73.3571
2022-10-18T06:32:20.699Z,73.3571
2022-10-18T06:33:20.725Z,73.3571
2022-10-18T06:34:20.760Z,73.4286
2022-10-18T06:35:20.794Z,73.5
2022-10-18T06:36:20.829Z,73.5714
2022-10-18T06:37:20.860Z,73.5714
2022-10-18T06:38:20.894Z,73.5
2022-10-18T06:39:20.928Z,73.5
2022-10-18T06:40:20.959Z,73.5714
2022-10-18T06:41:20.984Z,73.7143
2022-10-18T06:42:22.675Z,73.7143
2022-10-18T06:43:21.637Z,73.7857
2022-10-18T06:44:21.073Z,73.7857
2022-10-18T06:45:21.102Z,73.7857
2022-10-18T06:46:21.134Z,73.8571
2022-10-18T06:47:21.164Z,73.8571
2022-10-18T06:48:21.261Z,73.8571
2022-10-18T06:49:21.225Z,73.8571
2022-10-18T06:50:21.257Z,73.9286
2022-10-18T06:51:21.292Z,73.9286
2022-10-18T06:52:21.332Z,73.9286
2022-10-18T06:53:21.365Z,73.9286
2022-10-18T06:54:21.396Z,74
2022-10-18T06:55:21.425Z,74
2022-10-18T06:56:21.457Z,74.0714
2022-10-18T06:57:21.490Z,74.0714
2022-10-18T06:58:21.519Z,74.1429
2022-10-18T06:59:21.551Z,74.1429
2022-10-18T07:00:21.572Z,74.2143
2022-10-18T07:01:21.625Z,74.2143
2022-10-18T07:02:21.622Z,74.2143
2022-10-18T07:03:21.646Z,74.1429
2022-10-18T07:04:21.684Z,74.1429
2022-10-18T07:05:21.737Z,74.2143
2022-10-18T07:06:21.752Z,74.2857
2022-10-18T07:07:21.775Z,74.2857
2022-10-18T07:08:21.809Z,74.3571
2022-10-18T07:09:21.844Z,74.4286
2022-10-18T07:10:21.864Z,74.4286
2022-10-18T07:11:21.898Z,74.5
2022-10-18T07:12:21.930Z,74.5
2022-10-18T07:13:32.322Z,74.5
2022-10-18T07:14:25.764Z,74.5
2022-10-18T07:15:22.087Z,74.5
2022-10-18T07:16:22.054Z,74.5
2022-10-18T07:17:22.080Z,74.4286
2022-10-18T07:18:22.108Z,74.4286
2022-10-18T07:19:22.143Z,74.4286
2022-10-18T07:20:22.247Z,74.5
2022-10-18T07:21:22.229Z,74.5714
2022-10-18T07:22:23.536Z,74.5714
2022-10-18T07:23:22.282Z,74.5714
2022-10-18T07:24:22.348Z,74.6429
2022-10-18T07:25:23.923Z,74.5714
2022-10-18T07:26:22.387Z,74.5714
2022-10-18T07:27:22.398Z,74.5714
2022-10-18T07:28:22.457Z,74.5
2022-10-18T07:29:22.474Z,74.5
2022-10-18T07:30:22.570Z,74.5
2022-10-18T07:31:22.529Z,74.4286
2022-10-18T07:32:22.564Z,74.4286
2022-10-18T07:33:22.597Z,74.4286
2022-10-18T07:34:22.628Z,74.3571
2022-10-18T07:35:22.665Z,74.2857
2022-10-18T07:36:22.691Z,74.2143
2022-10-18T07:37:26.587Z,74.2143
2022-10-18T07:38:22.756Z,74.2143
2022-10-18T07:39:22.789Z,74.1429
2022-10-18T07:40:22.816Z,74.1429
2022-10-18T07:41:22.846Z,74.0714
2022-10-18T07:42:22.877Z,74
2022-10-18T07:43:22.906Z,74
2022-10-18T07:44:22.938Z,73.9286
2022-10-18T07:45:22.964Z,73.9286
2022-10-18T07:46:23.003Z,73.9286
2022-10-18T07:47:23.025Z,73.8571
2022-10-18T07:48:23.059Z,73.8571
2022-10-18T07:49:23.085Z,73.9286
2022-10-18T07:50:23.119Z,73.9286
2022-10-18T07:51:23.149Z,73.9286
2022-10-18T07:52:23.197Z,74
2022-10-18T07:53:23.228Z,74
2022-10-18T07:54:23.240Z,73.9286
2022-10-18T07:55:23.270Z,73.9286
2022-10-18T07:56:23.303Z,73.9286
2022-10-18T07:57:23.333Z,73.9286
2022-10-18T07:58:23.375Z,73.9286
2022-10-18T07:59:23.407Z,73.8571
2022-10-18T08:00:23.440Z,73.8571
2022-10-18T08:01:23.599Z,73.8571
2022-10-18T08:02:23.506Z,73.7857
2022-10-18T08:03:23.545Z,73.7857
2022-10-18T08:04:23.577Z,73.7857
2022-10-18T08:05:23.643Z,73.8571
2022-10-18T08:06:23.645Z,73.9286
2022-10-18T08:07:23.663Z,73.8571
2022-10-18T08:08:23.694Z,73.8571
2022-10-18T08:09:23.730Z,73.8571
2022-10-18T08:10:23.758Z,73.8571
2022-10-18T08:11:23.799Z,73.8571
2022-10-18T08:12:23.825Z,73.8571
2022-10-18T08:13:23.856Z,73.8571
2022-10-18T08:14:23.888Z,73.8571
2022-10-18T08:15:23.922Z,73.9286
2022-10-18T08:16:23.985Z,74
2022-10-18T08:17:23.985Z,74.0714
2022-10-18T08:18:24.012Z,74.1429
2022-10-18T08:19:24.047Z,74.1429
2022-10-18T08:20:30.897Z,74.2143
2022-10-18T08:21:24.112Z,74.2857
2022-10-18T08:22:24.136Z,74.2857
2022-10-18T08:23:24.173Z,74.3571
2022-10-18T08:24:24.206Z,74.3571
2022-10-18T08:25:24.278Z,74.4286
2022-10-18T08:26:24.272Z,74.4286
2022-10-18T08:27:24.311Z,74.4286
2022-10-18T08:28:24.395Z,74.4286
2022-10-18T08:29:26.962Z,74.5
2022-10-18T08:30:24.411Z,74.4286
2022-10-18T08:31:24.442Z,74.4286
2022-10-18T08:32:24.463Z,74.5
2022-10-18T08:33:24.482Z,74.5
2022-10-18T08:34:24.517Z,74.5
2022-10-18T08:35:24.544Z,74.5
2022-10-18T08:36:24.581Z,74.4286
2022-10-18T08:37:24.610Z,74.5
2022-10-18T08:38:24.640Z,74.4286
2022-10-18T08:39:24.672Z,74.5
2022-10-18T08:40:24.704Z,74.5
2022-10-18T08:41:24.739Z,74.5
2022-10-18T08:42:24.774Z,74.5
2022-10-18T08:43:24.843Z,74.4286
2022-10-18T08:44:24.843Z,74.4286
2022-10-18T08:45:40.883Z,74.4286
2022-10-18T08:46:24.909Z,74.5
2022-10-18T08:47:24.952Z,74.5
2022-10-18T08:48:24.967Z,74.5
2022-10-18T08:49:25.003Z,74.5
2022-10-18T08:50:25.031Z,74.5714
2022-10-18T08:51:25.056Z,74.5714
2022-10-18T08:52:25.086Z,74.5
2022-10-18T08:53:25.118Z,74.5
2022-10-18T08:54:25.153Z,74.5
2022-10-18T08:55:25.192Z,74.5
2022-10-18T08:56:25.221Z,74.5
2022-10-18T08:57:25.258Z,74.4286
2022-10-18T08:58:25.291Z,74.3571
2022-10-18T08:59:25.714Z,74.3571
2022-10-18T09:00:25.364Z,74.4286
2022-10-18T09:01:25.388Z,74.4286
2022-10-18T09:02:25.419Z,74.3571
2022-10-18T09:03:25.529Z,74.3571
2022-10-18T09:04:25.490Z,74.2857
2022-10-18T09:05:25.512Z,74.2857
2022-10-18T09:06:25.544Z,74.2143
2022-10-18T09:07:25.592Z,74.1429
2022-10-18T09:08:25.607Z,74.2143
2022-10-18T09:09:25.633Z,74.1429
2022-10-18T09:10:25.672Z,74.1429
2022-10-18T09:11:25.796Z,74.2143
2022-10-18T09:12:25.745Z,74.2857
2022-10-18T09:13:25.773Z,74.2857
2022-10-18T09:14:25.809Z,74.2143
2022-10-18T09:15:25.832Z,74.2143
2022-10-18T09:16:25.867Z,74.2143
2022-10-18T09:17:25.901Z,74.1429
2022-10-18T09:18:25.937Z,74.1429
2022-10-18T09:19:25.967Z,74.1429
2022-10-18T09:20:26.000Z,74.1429
2022-10-18T09:21:26.031Z,74.0714
2022-10-18T09:22:26.067Z,74.0714
2022-10-18T09:23:26.102Z,74.0714
2022-10-18T09:24:26.254Z,74.0714
2022-10-18T09:25:26.164Z,74.0714
2022-10-18T09:26:26.199Z,74.0714
2022-10-18T09:27:26.233Z,74.2143
2022-10-18T09:28:26.279Z,74.2143
2022-10-18T09:29:26.270Z,74.2857
2022-10-18T09:30:26.308Z,74.3571
2022-10-18T09:31:26.332Z,74.3571
2022-10-18T09:32:26.366Z,74.3571
2022-10-18T09:33:26.400Z,74.4286
2022-10-18T09:34:26.437Z,74.3571
2022-10-18T09:35:26.471Z,74.2857
2022-10-18T09:36:26.498Z,74.2857
2022-10-18T09:37:26.532Z,74.2143
2022-10-18T09:38:26.569Z,74.2143
2022-10-18T09:39:26.594Z,74.1429
2022-10-18T09:40:26.625Z,74.1429
2022-10-18T09:41:26.665Z,74.0714
2022-10-18T09:42:26.701Z,74
2022-10-18T09:43:26.726Z,73.9286
2022-10-18T09:44:26.743Z,73.9286
2022-10-18T09:45:26.777Z,73.9286
2022-10-18T09:46:26.807Z,73.8571
2022-10-18T09:47:26.943Z,73.8571
2022-10-18T09:48:26.881Z,73.7857
2022-10-18T09:49:26.908Z,73.7857
2022-10-18T09:50:26.939Z,73.7857
2022-10-18T09:51:26.969Z,73.7143
2022-10-18T09:52:27.001Z,73.7143
2022-10-18T09:53:27.032Z,73.7857
2022-10-18T09:54:27.069Z,73.7857
2022-10-18T09:55:27.102Z,73.7143
2022-10-18T09:56:27.133Z,73.6429
2022-10-18T09:57:27.162Z,73.6429
2022-10-18T09:58:27.207Z,73.5714
2022-10-18T09:59:27.238Z,73.5714
2022-10-18T10:00:27.269Z,73.6429
2022-10-18T10:01:27.305Z,73.7143
2022-10-18T10:02:27.382Z,73.7857
2022-10-18T10:03:27.373Z,73.7857
2022-10-18T10:04:27.408Z,73.8571
2022-10-18T10:05:27.441Z,73.8571
2022-10-18T10:06:27.477Z,73.9286
2022-10-18T10:07:29.820Z,74
2022-10-18T10:08:27.532Z,74
2022-10-18T10:09:27.569Z,74
2022-10-18T10:10:27.596Z,74
2022-10-18T10:11:27.630Z,74
2022-10-18T10:12:27.667Z,74
2022-10-18T10:13:27.700Z,74
2022-10-18T10:14:27.751Z,74
2022-10-18T10:15:31.288Z,74
2022-10-18T10:16:27.786Z,74
2022-10-18T10:17:27.820Z,74
2022-10-18T10:18:27.851Z,73.9286
2022-10-18T10:19:27.880Z,73.9286
2022-10-18T10:20:27.911Z,73.8571
2022-10-18T10:21:27.943Z,73.7857
2022-10-18T10:22:27.968Z,73.8571
2022-10-18T10:23:28.003Z,73.8571
2022-10-18T10:24:30.402Z,73.8571
2022-10-18T10:25:28.060Z,73.7143
2022-10-18T10:26:28.102Z,73.6429
2022-10-18T10:27:28.115Z,73.6429
2022-10-18T10:28:28.188Z,73.6429
2022-10-18T10:29:44.159Z,73.6429
2022-10-18T10:30:28.216Z,73.6429
2022-10-18T10:31:28.252Z,73.6429
2022-10-18T10:33:28.319Z,73.6429
2022-10-18T10:34:28.352Z,73.7143
2022-10-18T10:35:41.343Z,73.7857
2022-10-18T10:36:28.423Z,73.8571
2022-10-18T10:37:28.446Z,73.7857
2022-10-18T10:38:28.485Z,73.7857
2022-10-18T10:39:28.511Z,73.8571
2022-10-18T10:40:28.854Z,73.8571
2022-10-18T10:41:28.633Z,73.8571
2022-10-18T10:42:28.596Z,73.9286
2022-10-18T10:43:38.037Z,73.9286
2022-10-18T10:44:28.669Z,73.8571
2022-10-18T10:45:28.693Z,73.8571
2022-10-18T10:46:28.723Z,73.8571
2022-10-18T10:47:28.759Z,73.8571
2022-10-18T10:48:33.018Z,73.9286
2022-10-18T10:49:40.256Z,74
2022-10-18T10:50:28.907Z,73.9286
2022-10-18T10:51:28.887Z,73.9286
2022-10-18T10:52:29.154Z,73.8571
2022-10-18T10:53:28.944Z,73.8571
2022-10-18T10:54:28.974Z,73.7857
2022-10-18T10:55:34.896Z,73.7857
2022-10-18T10:56:29.045Z,73.7143
2022-10-18T10:57:29.064Z,73.6429
2022-10-18T10:58:29.094Z,73.7143
2022-10-18T10:59:29.147Z,73.7143
2022-10-18T11:00:29.175Z,73.7143
2022-10-18T11:01:29.191Z,73.7143
2022-10-18T11:02:29.451Z,73.7143
2022-10-18T11:03:30.055Z,73.5714
2022-10-18T11:04:29.292Z,73.5
2022-10-18T11:05:29.390Z,73.5
2022-10-18T11:06:29.347Z,73.5714
2022-10-18T11:07:29.380Z,73.5714
2022-10-18T11:08:29.408Z,73.5714
2022-10-18T11:09:29.436Z,73.5714
2022-10-18T11:10:29.467Z,73.6429
2022-10-18T11:11:29.497Z,73.6429
2022-10-18T11:12:29.765Z,73.6429
2022-10-18T11:13:29.547Z,73.5714
2022-10-18T11:14:29.577Z,73.5714
2022-10-18T11:15:29.615Z,73.5
2022-10-18T11:16:29.651Z,73.5
2022-10-18T11:17:29.686Z,73.5
2022-10-18T11:18:29.718Z,73.4286
2022-10-18T11:19:29.746Z,73.3571
2022-10-18T11:20:29.773Z,73.2857
2022-10-18T11:21:29.805Z,73.2143
2022-10-18T11:22:30.263Z,73.1429
2022-10-18T11:23:29.856Z,73.0714
2022-10-18T11:24:29.886Z,72.9286
2022-10-18T11:25:29.917Z,72.9286
2022-10-18T11:26:29.940Z,72.8571
2022-10-18T11:27:29.970Z,72.8571
2022-10-18T11:28:30.054Z,72.8571
2022-10-18T11:29:30.028Z,72.9286
2022-10-18T11:30:30.051Z,72.9286
2022-10-18T11:31:30.083Z,72.9286
2022-10-18T11:32:30.540Z,72.8571
2022-10-18T11:33:56.395Z,72.8571
2022-10-18T11:34:30.182Z,72.7857
2022-10-18T11:35:30.205Z,72.8571
2022-10-18T11:36:32.059Z,72.8571
2022-10-18T11:37:39.660Z,72.9286
2022-10-18T11:38:30.314Z,73
2022-10-18T11:39:30.355Z,73.0714
2022-10-18T11:40:30.378Z,73.0714
2022-10-18T11:41:30.406Z,73.1429
2022-10-18T11:42:30.434Z,72.9286
2022-10-18T11:43:50.281Z,72.9286
2022-10-18T11:44:30.501Z,73.1429
2022-10-18T11:46:30.573Z,73.2143
2022-10-18T11:47:30.881Z,73.0714
2022-10-18T11:48:30.632Z,73
2022-10-18T11:49:30.669Z,72.9286
2022-10-18T11:50:30.694Z,72.8571
2022-10-18T11:51:38.915Z,72.7143
2022-10-18T11:52:30.753Z,72.5714
2022-10-18T11:53:30.784Z,72.3571
2022-10-18T11:54:30.922Z,72.4286
2022-10-18T11:55:32.945Z,72.4286
2022-10-18T11:56:30.869Z,72.4286
2022-10-18T11:57:31.293Z,72.5714
2022-10-18T11:58:30.940Z,72.7143
2022-10-18T11:59:30.969Z,72.7143
2022-10-18T12:00:30.994Z,72.6429
2022-10-18T12:01:31.012Z,72.4286
2022-10-18T12:02:31.493Z,72.3571
2022-10-18T12:03:31.075Z,72.2857
2022-10-18T12:04:31.108Z,72.2143
2022-10-18T12:05:31.142Z,72.2143
2022-10-18T12:06:31.174Z,72.2857
2022-10-18T12:07:32.531Z,72.3571
2022-10-18T12:08:31.261Z,72.2857
2022-10-18T12:09:31.270Z,72.1429
2022-10-18T12:10:44.422Z,72.0714
2022-10-18T12:11:31.341Z,72.0714
2022-10-18T12:12:31.669Z,72.0714
2022-10-18T12:13:31.398Z,72.1429
2022-10-18T12:14:31.457Z,72.1429
2022-10-18T12:15:31.464Z,72.2143
2022-10-18T12:16:50.058Z,72.2857
2022-10-18T12:17:42.877Z,72.3571
2022-10-18T12:18:31.549Z,72.4286
2022-10-18T12:19:31.580Z,72.5714
2022-10-18T12:20:31.616Z,72.7143